createdAt,value
2023-01-11T00:00:45.953Z,9.711610
2023-01-11T00:01:45.930Z,9.711681
2023-01-11T00:02:45.942Z,9.711600
2023-01-11T00:03:45.913Z,9.711613
2023-01-11T00:04:45.952Z,9.711646
2023-01-11T00:05:45.916Z,9.711580
2023-01-11T00:06:45.956Z,9.711558
2023-01-11T00:07:45.891Z,9.711561
2023-01-11T00:08:46.462Z,9.711663
2023-01-11T00:09:45.870Z,9.711675
2023-01-11T00:10:45.875Z,9.711782
2023-01-11T00:11:45.860Z,9.711592
2023-01-11T00:12:45.881Z,9.711584
2023-01-11T00:13:45.875Z,9.711709
2023-01-11T00:14:45.831Z,9.711606
2023-01-11T00:15:45.849Z,9.711685
2023-01-11T00:16:47.550Z,9.711729
2023-01-11T00:17:45.819Z,9.711762
2023-01-11T00:18:45.804Z,9.711695
2023-01-11T00:19:45.800Z,9.711612
2023-01-11T00:20:45.799Z,9.711654
2023-01-11T00:21:45.786Z,9.711701
2023-01-11T00:22:45.777Z,9.711768
2023-01-11T00:23:45.762Z,9.711803
2023-01-11T00:24:45.763Z,9.711789
2023-01-11T00:30:46.916Z,9.712059
2023-01-11T00:31:46.912Z,9.711621
2023-01-11T00:32:47.702Z,9.711666
2023-01-11T00:33:48.700Z,9.711493
2023-01-11T00:34:47.701Z,9.711399
2023-01-11T00:35:46.873Z,9.711589
2023-01-11T00:36:46.863Z,9.711606
2023-01-11T00:37:46.854Z,9.711790
2023-01-11T00:38:47.777Z,9.711408
2023-01-11T00:39:46.832Z,9.711373
2023-01-11T00:40:46.826Z,9.711577
2023-01-11T00:41:46.814Z,9.711403
2023-01-11T00:42:47.820Z,9.711261
2023-01-11T00:43:46.796Z,9.711563
2023-01-11T00:44:46.794Z,9.711682
2023-01-11T00:45:46.816Z,9.711658
2023-01-11T00:46:46.782Z,9.711515
2023-01-11T00:47:46.781Z,9.711600
2023-01-11T00:48:46.764Z,9.711769
2023-01-11T00:49:46.759Z,9.711747
2023-01-11T00:50:46.742Z,9.712121
2023-01-11T00:51:46.749Z,9.712133
2023-01-11T00:52:46.741Z,9.712054
2023-01-11T00:53:46.718Z,9.712094
2023-01-11T00:54:46.725Z,9.711931
2023-01-11T00:55:46.706Z,9.711709
2023-01-11T00:56:46.727Z,9.711595
2023-01-11T00:57:47.294Z,9.711681
2023-01-11T00:58:46.683Z,9.711733
2023-01-11T00:59:47.672Z,9.711737
2023-01-11T01:00:46.662Z,9.711763
2023-01-11T01:01:46.668Z,9.711612
2023-01-11T01:02:46.689Z,9.711627
2023-01-11T01:03:46.647Z,9.711815
2023-01-11T01:04:47.287Z,9.711908
2023-01-11T01:05:46.658Z,9.711806
2023-01-11T01:06:46.632Z,9.711612
2023-01-11T01:07:46.617Z,9.711938
2023-01-11T01:08:46.608Z,9.711992
2023-01-11T01:09:46.591Z,9.712051
2023-01-11T01:10:46.594Z,9.711864
2023-01-11T01:11:46.578Z,9.712063
2023-01-11T01:12:47.216Z,9.712201
2023-01-11T01:13:46.570Z,9.711683
2023-01-11T01:14:46.568Z,9.711581
2023-01-11T01:15:46.609Z,9.711640
2023-01-11T01:16:46.537Z,9.711575
2023-01-11T01:17:46.529Z,9.711733
2023-01-11T01:18:46.521Z,9.711696
2023-01-11T01:19:46.804Z,9.711674
2023-01-11T01:20:46.515Z,9.711723
2023-01-11T01:21:46.504Z,9.711694
2023-01-11T01:22:46.502Z,9.711760
2023-01-11T01:23:46.483Z,9.711705
2023-01-11T01:24:46.501Z,9.711704
2023-01-11T01:25:46.465Z,9.711777
2023-01-11T01:26:46.459Z,9.711669
2023-01-11T01:27:46.457Z,9.711755
2023-01-11T01:28:46.448Z,9.711598
2023-01-11T01:29:46.449Z,9.711579
2023-01-11T01:30:46.429Z,9.711636
2023-01-11T01:31:46.426Z,9.711688
2023-01-11T01:32:46.428Z,9.711648
2023-01-11T01:33:46.403Z,9.711667
2023-01-11T01:34:46.408Z,9.711758
2023-01-11T01:35:46.394Z,9.711680
2023-01-11T01:36:46.381Z,9.711782
2023-01-11T01:37:46.376Z,9.711807
2023-01-11T01:38:46.371Z,9.711700
2023-01-11T01:39:46.363Z,9.711662
2023-01-11T01:40:46.348Z,9.711604
2023-01-11T01:57:54.582Z,9.711499
2023-01-11T01:58:53.596Z,9.711523
2023-01-11T01:59:53.593Z,9.711481
2023-01-11T02:00:53.608Z,9.711354
2023-01-11T02:01:53.608Z,9.711387
2023-01-11T02:02:53.610Z,9.711369
2023-01-11T02:03:53.554Z,9.711194
2023-01-11T02:04:53.552Z,9.711416
2023-01-11T02:05:53.561Z,9.711590
2023-01-11T02:06:53.576Z,9.711411
2023-01-11T02:07:53.520Z,9.711435
2023-01-11T02:08:53.509Z,9.711043
2023-01-11T02:09:53.508Z,9.711000
2023-01-11T02:10:53.513Z,9.710977
2023-01-11T02:11:53.497Z,9.711385
2023-01-11T02:12:53.477Z,9.711456
2023-01-11T02:13:53.484Z,9.711268
2023-01-11T02:14:53.468Z,9.711203
2023-01-11T02:15:53.489Z,9.711407
2023-01-11T02:16:53.453Z,9.711308
2023-01-11T02:17:53.452Z,9.711227
2023-01-11T02:18:53.432Z,9.711287
2023-01-11T02:19:53.422Z,9.711456
2023-01-11T02:20:54.442Z,9.711629
2023-01-11T02:21:53.415Z,9.711276
2023-01-11T02:22:53.960Z,9.711716
2023-01-11T02:23:53.992Z,9.711562
2023-01-11T02:24:53.387Z,9.711237
2023-01-11T02:25:54.000Z,9.711213
2023-01-11T02:26:53.400Z,9.711056
2023-01-11T02:27:53.363Z,9.711303
2023-01-11T02:28:53.356Z,9.711740
2023-01-11T02:29:53.585Z,9.711150
2023-01-11T02:30:53.349Z,9.710714
2023-01-11T02:31:53.993Z,9.710885
2023-01-11T02:32:53.327Z,9.711054
2023-01-11T02:33:53.312Z,9.711080
2023-01-11T02:34:53.299Z,9.711370
2023-01-11T02:35:53.302Z,9.711373
2023-01-11T02:36:53.291Z,9.711373
2023-01-11T02:37:53.285Z,9.711740
2023-01-11T02:38:53.271Z,9.711740
2023-01-11T02:39:53.269Z,9.710962
2023-01-11T02:40:53.257Z,9.710962
2023-01-11T02:41:53.241Z,9.710962
2023-01-11T02:42:53.247Z,9.709781
2023-01-11T02:43:53.223Z,9.711127
2023-01-11T02:44:53.225Z,9.711606
2023-01-11T02:45:53.236Z,9.711615
2023-01-11T02:46:53.263Z,9.711566
2023-01-11T02:47:53.205Z,9.711452
2023-01-11T02:48:54.001Z,9.711390
2023-01-11T02:49:54.081Z,9.711517
2023-01-11T02:50:53.168Z,9.711602
2023-01-11T02:51:53.156Z,9.711437
2023-01-11T02:52:53.156Z,9.711427
2023-01-11T02:53:53.135Z,9.711430
2023-01-11T02:54:53.144Z,9.711469
2023-01-11T02:55:53.117Z,9.711486
2023-01-11T02:56:53.122Z,9.711531
2023-01-11T02:57:53.121Z,9.711474
2023-01-11T02:58:53.107Z,9.711599
2023-01-11T02:59:53.085Z,9.711497
2023-01-11T03:00:53.995Z,9.711585
2023-01-11T03:01:53.232Z,9.711504
2023-01-11T03:02:53.088Z,9.711506
2023-01-11T03:03:53.062Z,9.711472
2023-01-11T03:04:53.052Z,9.711517
2023-01-11T03:05:53.051Z,9.711576
2023-01-11T03:06:53.097Z,9.711550
2023-01-11T03:07:53.030Z,9.711576
2023-01-11T03:08:53.029Z,9.711555
2023-01-11T03:09:53.011Z,9.711522
2023-01-11T03:10:53.006Z,9.711616
2023-01-11T03:11:52.991Z,9.711562
2023-01-11T03:12:52.976Z,9.711530
2023-01-11T03:13:52.989Z,9.711509
2023-01-11T03:14:52.969Z,9.711537
2023-01-11T03:15:52.963Z,9.711501
2023-01-11T03:16:52.951Z,9.711526
2023-01-11T03:17:52.944Z,9.711556
2023-01-11T03:18:52.940Z,9.711527
2023-01-11T03:19:53.928Z,9.711574
2023-01-11T03:20:52.916Z,9.711379
2023-01-11T03:21:52.920Z,9.711131
2023-01-11T03:22:52.903Z,9.711029
2023-01-11T03:23:52.940Z,9.711538
2023-01-11T03:24:52.899Z,9.711640
2023-01-11T03:25:52.872Z,9.711749
2023-01-11T03:26:52.889Z,9.711698
2023-01-11T03:27:52.871Z,9.711737
2023-01-11T03:28:53.515Z,9.711767
2023-01-11T03:29:52.853Z,9.711905
2023-01-11T03:30:52.839Z,9.711905
2023-01-11T03:31:52.832Z,9.711896
2023-01-11T03:32:52.830Z,9.711919
2023-01-11T03:33:52.837Z,9.711780
2023-01-11T03:34:52.814Z,9.711828
2023-01-11T03:35:52.793Z,9.711905
2023-01-11T03:36:52.782Z,9.711981
2023-01-11T03:37:52.779Z,9.711884
2023-01-11T03:38:52.785Z,9.711914
2023-01-11T03:39:52.776Z,9.712003
2023-01-11T03:40:52.750Z,9.712103
2023-01-11T03:41:52.761Z,9.712020
2023-01-11T03:42:52.737Z,9.712022
2023-01-11T03:43:52.724Z,9.712012
2023-01-11T03:44:52.734Z,9.712205
2023-01-11T03:45:53.589Z,9.712337
2023-01-11T03:46:52.765Z,9.712225
2023-01-11T03:47:52.693Z,9.712097
2023-01-11T03:48:52.692Z,9.712253
2023-01-11T03:49:52.694Z,9.712450
2023-01-11T03:50:52.669Z,9.712154
2023-01-11T03:51:52.664Z,9.712167
2023-01-11T03:52:53.512Z,9.712121
2023-01-11T03:53:52.646Z,9.712171
2023-01-11T03:54:52.652Z,9.712226
2023-01-11T03:55:52.645Z,9.712459
2023-01-11T03:56:52.626Z,9.712417
2023-01-11T03:57:52.616Z,9.712217
2023-01-11T03:58:52.612Z,9.712324
2023-01-11T03:59:52.608Z,9.712456
2023-01-11T04:00:52.634Z,9.711700
2023-01-11T04:01:52.599Z,9.711559
2023-01-11T04:02:53.093Z,9.711559
2023-01-11T04:03:52.684Z,9.711711
2023-01-11T04:04:52.573Z,9.711552
2023-01-11T04:05:52.569Z,9.711569
2023-01-11T04:06:52.565Z,9.711665
2023-01-11T04:07:54.081Z,9.711745
2023-01-11T04:08:54.507Z,9.711632
2023-01-11T04:09:52.681Z,9.711594
2023-01-11T04:10:52.507Z,9.711741
2023-01-11T04:11:52.507Z,9.712076
2023-01-11T04:12:52.515Z,9.711561
2023-01-11T04:13:52.496Z,9.711949
2023-01-11T04:14:52.496Z,9.711761
2023-01-11T04:15:52.512Z,9.711481
2023-01-11T04:16:56.093Z,9.711480
2023-01-11T04:17:54.090Z,9.711681
2023-01-11T04:18:52.452Z,9.711845
2023-01-11T04:19:52.449Z,9.711793
2023-01-11T04:20:53.092Z,9.711776
2023-01-11T04:21:52.430Z,9.711760
2023-01-11T04:22:52.454Z,9.711565
2023-01-11T04:23:54.094Z,9.711739
2023-01-11T04:24:52.404Z,9.711467
2023-01-11T04:25:54.093Z,9.711981
2023-01-11T04:26:52.385Z,9.711866
2023-01-11T04:27:52.399Z,9.712377
2023-01-11T04:28:54.362Z,9.711783
2023-01-11T04:29:53.363Z,9.711451
2023-01-11T04:30:52.368Z,9.711974
2023-01-11T04:31:52.398Z,9.711668
2023-01-11T04:32:52.353Z,9.711649
2023-01-11T04:33:52.334Z,9.711632
2023-01-11T04:34:52.325Z,9.711981
2023-01-11T04:35:52.322Z,9.711840
2023-01-11T04:36:52.302Z,9.711605
2023-01-11T04:37:52.293Z,9.711246
2023-01-11T04:38:52.309Z,9.711476
2023-01-11T04:39:52.302Z,9.711459
2023-01-11T04:40:53.099Z,9.711282
2023-01-11T04:41:52.263Z,9.711346
2023-01-11T04:42:52.257Z,9.711392
2023-01-11T04:43:52.256Z,9.711199
2023-01-11T04:44:52.235Z,9.711272
2023-01-11T04:45:52.252Z,9.711388
2023-01-11T04:46:52.232Z,9.711384
2023-01-11T04:47:52.217Z,9.711382
2023-01-11T04:48:59.539Z,9.711505
2023-01-11T04:49:53.022Z,9.711500
2023-01-11T04:50:53.118Z,9.711562
2023-01-11T04:51:52.181Z,9.711642
2023-01-11T04:52:52.177Z,9.711540
2023-01-11T04:53:52.171Z,9.711718
2023-01-11T04:54:52.159Z,9.711760
2023-01-11T04:55:52.146Z,9.711685
2023-01-11T04:56:52.139Z,9.711611
2023-01-11T04:57:52.133Z,9.711555
2023-01-11T04:58:52.133Z,9.711477
2023-01-11T04:59:52.122Z,9.711560
2023-01-11T05:00:52.151Z,9.711472
2023-01-11T05:01:52.118Z,9.711430
2023-01-11T05:02:52.088Z,9.711333
2023-01-11T05:03:52.165Z,9.711452
2023-01-11T05:04:52.079Z,9.711267
2023-01-11T05:05:52.075Z,9.711479
2023-01-11T05:06:52.128Z,9.711328
2023-01-11T05:07:52.050Z,9.711619
2023-01-11T05:08:52.046Z,9.711707
2023-01-11T05:09:52.045Z,9.711583
2023-01-11T05:10:52.028Z,9.711745
2023-01-11T05:11:52.017Z,9.711642
2023-01-11T05:12:52.021Z,9.711589
2023-01-11T05:13:52.015Z,9.711717
2023-01-11T05:14:51.990Z,9.711660
2023-01-11T05:15:51.990Z,9.711626
2023-01-11T05:16:51.981Z,9.711647
2023-01-11T05:17:51.981Z,9.711678
2023-01-11T05:18:51.967Z,9.711662
2023-01-11T05:19:55.651Z,9.711620
2023-01-11T05:20:51.946Z,9.711647
2023-01-11T05:21:51.947Z,9.711836
2023-01-11T05:22:51.953Z,9.711659
2023-01-11T05:23:55.539Z,9.711753
2023-01-11T05:24:51.930Z,9.711789
2023-01-11T05:25:52.523Z,9.711957
2023-01-11T05:26:53.523Z,9.711926
2023-01-11T05:27:53.108Z,9.711759
2023-01-11T05:28:51.880Z,9.711817
2023-01-11T05:29:51.888Z,9.711831
2023-01-11T05:30:51.864Z,9.711882
2023-01-11T05:31:51.872Z,9.711814
2023-01-11T05:32:51.849Z,9.711830
2023-01-11T05:33:51.834Z,9.712005
2023-01-11T05:34:51.836Z,9.711795
2023-01-11T05:35:54.451Z,9.711876
2023-01-11T05:36:51.823Z,9.711993
2023-01-11T05:37:51.810Z,9.712098
2023-01-11T05:38:51.796Z,9.712010
2023-01-11T05:39:51.786Z,9.711870
2023-01-11T05:40:51.805Z,9.711884
2023-01-11T05:41:51.779Z,9.711828
2023-01-11T05:42:51.779Z,9.711877
2023-01-11T05:43:51.760Z,9.711725
2023-01-11T05:44:51.751Z,9.711570
2023-01-11T05:45:51.755Z,9.711576
2023-01-11T05:46:52.609Z,9.711644
2023-01-11T05:47:51.725Z,9.711659
2023-01-11T05:48:51.716Z,9.711584
2023-01-11T05:49:51.702Z,9.711625
2023-01-11T05:50:51.700Z,9.711751
2023-01-11T05:51:52.559Z,9.711663
2023-01-11T05:52:51.689Z,9.711610
2023-01-11T05:53:51.779Z,9.711674
2023-01-11T05:54:53.667Z,9.711674
2023-01-11T05:55:53.609Z,9.711649
2023-01-11T06:00:01.260Z,9.711519
2023-01-11T06:01:01.272Z,9.711465
2023-01-11T06:02:01.309Z,9.711419
2023-01-11T06:03:01.292Z,9.711479
2023-01-11T06:04:01.226Z,9.711502
2023-01-11T06:05:01.241Z,9.711504
2023-01-11T06:06:01.211Z,9.711431
2023-01-11T06:07:01.281Z,9.711360
2023-01-11T06:08:01.199Z,9.711509
2023-01-11T06:09:01.172Z,9.711498
2023-01-11T06:10:02.199Z,9.711497
2023-01-11T06:11:01.268Z,9.711439
2023-01-11T06:12:01.163Z,9.711617
2023-01-11T06:13:01.921Z,9.711517
2023-01-11T06:14:01.594Z,9.711527
2023-01-11T06:15:01.166Z,9.711561
2023-01-11T06:16:01.133Z,9.711658
2023-01-11T06:17:01.151Z,9.711608
2023-01-11T06:18:01.119Z,9.711537
2023-01-11T06:19:01.106Z,9.711566
2023-01-11T06:20:01.102Z,9.711555
2023-01-11T06:21:01.341Z,9.711672
2023-01-11T06:22:01.092Z,9.711690
2023-01-11T06:23:01.067Z,9.711590
2023-01-11T06:24:01.089Z,9.711370
2023-01-11T06:25:01.059Z,9.711555
2023-01-11T06:26:01.051Z,9.711399
2023-01-11T06:27:01.847Z,9.711553
2023-01-11T06:28:01.139Z,9.711505
2023-01-11T06:29:01.026Z,9.711590
2023-01-11T06:30:01.067Z,9.711530
2023-01-11T06:31:04.899Z,9.711593
2023-01-11T06:32:01.013Z,9.711743
2023-01-11T06:33:01.000Z,9.711736
2023-01-11T06:34:00.989Z,9.711897
2023-01-11T06:35:00.993Z,9.712085
2023-01-11T06:36:00.970Z,9.712345
2023-01-11T06:37:01.838Z,9.712095
2023-01-11T06:38:03.005Z,9.711925
2023-01-11T06:39:00.952Z,9.712063
2023-01-11T06:40:00.957Z,9.711999
2023-01-11T06:41:00.946Z,9.712018
2023-01-11T06:42:00.928Z,9.712111
2023-01-11T06:43:00.957Z,9.712120
2023-01-11T06:44:00.911Z,9.711949
2023-01-11T06:45:00.900Z,9.711914
2023-01-11T06:46:00.919Z,9.711877
2023-01-11T06:47:00.908Z,9.711837
2023-01-11T06:48:00.882Z,9.711830
2023-01-11T06:49:00.872Z,9.711801
2023-01-11T06:50:00.878Z,9.711827
2023-01-11T06:51:00.864Z,9.711823
2023-01-11T06:52:00.901Z,9.711763
2023-01-11T06:53:00.862Z,9.711770
2023-01-11T06:54:01.440Z,9.711759
2023-01-11T06:55:04.332Z,9.711700
2023-01-11T06:56:06.407Z,9.711720
2023-01-11T06:57:00.816Z,9.711740
2023-01-11T06:58:00.797Z,9.711781
2023-01-11T06:59:00.796Z,9.711738
2023-01-11T07:00:01.348Z,9.711724
2023-01-11T07:01:00.904Z,9.711723
2023-01-11T07:02:00.817Z,9.711725
2023-01-11T07:03:00.764Z,9.711715
2023-01-11T07:04:00.785Z,9.711702
2023-01-11T07:05:00.800Z,9.711703
2023-01-11T07:06:00.731Z,9.711679
2023-01-11T07:07:00.735Z,9.711679
2023-01-11T07:08:00.737Z,9.711660
2023-01-11T07:09:00.715Z,9.711653
2023-01-11T07:10:00.700Z,9.711739
2023-01-11T07:11:00.756Z,9.711679
2023-01-11T07:12:00.688Z,9.711642
2023-01-11T07:13:00.685Z,9.711706
2023-01-11T07:14:00.675Z,9.711676
2023-01-11T07:15:00.659Z,9.711737
2023-01-11T07:16:00.764Z,9.711677
2023-01-11T07:17:00.649Z,9.711649
2023-01-11T07:18:00.634Z,9.711664
2023-01-11T07:19:00.643Z,9.711704
2023-01-11T07:20:05.329Z,9.711696
2023-01-11T07:21:01.350Z,9.711652
2023-01-11T07:22:00.612Z,9.711664
2023-01-11T07:23:00.618Z,9.711657
2023-01-11T07:24:00.613Z,9.711698
2023-01-11T07:25:00.583Z,9.711660
2023-01-11T07:26:00.692Z,9.711670
2023-01-11T07:27:00.584Z,9.711658
2023-01-11T07:28:00.578Z,9.711664
2023-01-11T07:29:00.554Z,9.711664
2023-01-11T07:30:02.432Z,9.711663
2023-01-11T07:31:00.693Z,9.711668
2023-01-11T07:32:00.537Z,9.711700
2023-01-11T07:33:00.554Z,9.711721
2023-01-11T07:34:00.515Z,9.711763
2023-01-11T07:35:00.504Z,9.711690
2023-01-11T07:36:00.534Z,9.711673
2023-01-11T07:37:01.074Z,9.711663
2023-01-11T07:38:00.516Z,9.711641
2023-01-11T07:39:00.483Z,9.711598
2023-01-11T07:40:01.421Z,9.711651
2023-01-11T07:41:00.506Z,9.711646
2023-01-11T07:42:00.460Z,9.711567
2023-01-11T07:43:00.464Z,9.711614
2023-01-11T07:44:00.450Z,9.711652
2023-01-11T07:45:00.468Z,9.711651
2023-01-11T07:46:00.509Z,9.711652
2023-01-11T07:47:00.443Z,9.711632
2023-01-11T07:48:00.418Z,9.711699
2023-01-11T07:49:00.408Z,9.711650
2023-01-11T07:50:00.413Z,9.711693
2023-01-11T07:51:00.411Z,9.711666
2023-01-11T07:52:00.393Z,9.711763
2023-01-11T07:53:00.375Z,9.711673
2023-01-11T07:54:00.365Z,9.711715
2023-01-11T07:55:00.354Z,9.711725
2023-01-11T07:56:00.354Z,9.711848
2023-01-11T07:57:00.355Z,9.711777
2023-01-11T07:58:00.367Z,9.711818
2023-01-11T07:59:00.334Z,9.711726
2023-01-11T08:00:00.859Z,9.711752
2023-01-11T08:01:01.927Z,9.711660
2023-01-11T08:02:00.316Z,9.711693
2023-01-11T08:03:02.017Z,9.711825
2023-01-11T08:04:01.297Z,9.711800
2023-01-11T08:05:03.056Z,9.711772
2023-01-11T08:06:01.286Z,9.711871
2023-01-11T08:07:00.269Z,9.711852
2023-01-11T08:08:00.282Z,9.711926
2023-01-11T08:09:00.267Z,9.712055
2023-01-11T08:10:00.239Z,9.711870
2023-01-11T08:11:00.238Z,9.711906
2023-01-11T08:12:00.249Z,9.711761
2023-01-11T08:13:00.237Z,9.711817
2023-01-11T08:14:00.221Z,9.711730
2023-01-11T08:15:00.270Z,9.711900
2023-01-11T08:16:00.343Z,9.712008
2023-01-11T08:17:00.193Z,9.711832
2023-01-11T08:18:00.193Z,9.711791
2023-01-11T08:19:00.175Z,9.711868
2023-01-11T08:20:00.857Z,9.711832
2023-01-11T08:21:00.149Z,9.711790
2023-01-11T08:22:00.145Z,9.711692
2023-01-11T08:23:00.148Z,9.711628
2023-01-11T08:24:00.135Z,9.711663
2023-01-11T08:25:00.152Z,9.711670
2023-01-11T08:26:00.129Z,9.711754
2023-01-11T08:27:00.151Z,9.711677
2023-01-11T08:28:00.133Z,9.711721
2023-01-11T08:29:00.107Z,9.711701
2023-01-11T08:30:00.105Z,9.711721
2023-01-11T08:31:00.963Z,9.711695
2023-01-11T08:32:00.083Z,9.711701
2023-01-11T08:33:00.860Z,9.711677
2023-01-11T08:34:00.048Z,9.711663
2023-01-11T08:35:00.054Z,9.711657
2023-01-11T08:36:00.058Z,9.711707
2023-01-11T08:37:01.027Z,9.711710
2023-01-11T08:38:00.025Z,9.711729
2023-01-11T08:39:00.031Z,9.711720
2023-01-11T08:40:00.032Z,9.711681
2023-01-11T08:41:01.001Z,9.711743
2023-01-11T08:41:59.993Z,9.711696
2023-01-11T08:42:59.988Z,9.711679
2023-01-11T08:43:59.974Z,9.711670
2023-01-11T08:44:59.975Z,9.711685
2023-01-11T08:46:00.082Z,9.711688
2023-01-11T08:46:59.964Z,9.711665
2023-01-11T08:47:59.952Z,9.711673
2023-01-11T08:48:59.950Z,9.711662
2023-01-11T08:49:59.936Z,9.711677
2023-01-11T08:50:59.927Z,9.711683
2023-01-11T08:51:59.945Z,9.711717
2023-01-11T08:52:59.910Z,9.711705
2023-01-11T08:53:59.928Z,9.711708
2023-01-11T08:54:59.945Z,9.711764
2023-01-11T08:55:59.901Z,9.711735
2023-01-11T08:56:59.883Z,9.711698
2023-01-11T08:57:59.879Z,9.711734
2023-01-11T08:58:59.861Z,9.711820
2023-01-11T08:59:59.857Z,9.711838
2023-01-11T09:00:59.847Z,9.711766
2023-01-11T09:01:59.947Z,9.711768
2023-01-11T09:02:59.855Z,9.711679
2023-01-11T09:03:59.826Z,9.711839
2023-01-11T09:04:59.815Z,9.711790
2023-01-11T09:05:59.819Z,9.711644
2023-01-11T09:06:59.810Z,9.711674
2023-01-11T09:07:59.829Z,9.711735
2023-01-11T09:08:59.793Z,9.711746
2023-01-11T09:09:59.785Z,9.711751
2023-01-11T09:10:59.779Z,9.711626
2023-01-11T09:11:59.783Z,9.711673
2023-01-11T09:12:59.779Z,9.711597
2023-01-11T09:13:59.741Z,9.711664
2023-01-11T09:14:59.764Z,9.711636
2023-01-11T09:15:59.753Z,9.711730
2023-01-11T09:16:59.730Z,9.711811
2023-01-11T09:17:59.718Z,9.711784
2023-01-11T09:18:59.722Z,9.711687
2023-01-11T09:19:59.699Z,9.711729
2023-01-11T09:20:59.697Z,9.711959
2023-01-11T09:21:59.737Z,9.711785
2023-01-11T09:23:00.370Z,9.711737
2023-01-11T09:23:59.671Z,9.711584
2023-01-11T09:24:59.673Z,9.711658
2023-01-11T09:25:59.680Z,9.711720
2023-01-11T09:26:59.749Z,9.711831
2023-01-11T09:27:59.649Z,9.711711
2023-01-11T09:28:59.642Z,9.711580
2023-01-11T09:29:59.630Z,9.711684
2023-01-11T09:30:59.637Z,9.711749
2023-01-11T09:31:59.602Z,9.711639
2023-01-11T09:32:59.597Z,9.711635
2023-01-11T09:33:59.599Z,9.711661
2023-01-11T09:34:59.585Z,9.711649
2023-01-11T09:39:07.588Z,9.711544
2023-01-11T09:40:07.488Z,9.711557
2023-01-11T09:41:07.481Z,9.711599
2023-01-11T09:42:07.492Z,9.711541
2023-01-11T09:43:07.455Z,9.711562
2023-01-11T09:44:08.469Z,9.711586
2023-01-11T09:45:07.464Z,9.711623
2023-01-11T09:46:08.620Z,9.711617
2023-01-11T09:47:08.435Z,9.711601
2023-01-11T09:48:07.458Z,9.711643
2023-01-11T09:49:07.442Z,9.711691
2023-01-11T09:50:08.361Z,9.711689
2023-01-11T09:51:07.431Z,9.711666
2023-01-11T09:52:07.397Z,9.711676
2023-01-11T09:53:07.394Z,9.711684
2023-01-11T09:54:07.387Z,9.711707
2023-01-11T21:27:55.332Z,9.711715
2023-01-11T21:28:56.189Z,9.711577
2023-01-11T21:29:55.305Z,9.711539
2023-01-11T21:30:55.289Z,9.711546
2023-01-11T21:31:56.080Z,9.711525
2023-01-11T21:32:55.258Z,9.711538
2023-01-11T21:33:57.167Z,9.711578
2023-01-11T21:34:55.266Z,9.711511
2023-01-11T21:35:55.253Z,9.711516
2023-01-11T21:36:55.242Z,9.711479
2023-01-11T21:37:55.231Z,9.711494
2023-01-11T21:38:55.224Z,9.711500
2023-01-11T21:39:55.219Z,9.711469
2023-01-11T21:40:55.205Z,9.711451
2023-01-11T21:41:55.216Z,9.711509
2023-01-11T21:42:55.184Z,9.711460
2023-01-11T21:43:56.189Z,9.711485
2023-01-11T21:44:55.178Z,9.711567
2023-01-11T21:45:55.173Z,9.711596
2023-01-11T21:46:56.287Z,9.711567
2023-01-11T21:47:57.090Z,9.711640
2023-01-11T21:48:55.154Z,9.711653
2023-01-11T21:49:55.133Z,9.711641
2023-01-11T21:50:55.678Z,9.711636
2023-01-11T21:51:55.122Z,9.711645
2023-01-11T21:52:55.119Z,9.711677
2023-01-11T21:53:55.107Z,9.711663
2023-01-11T21:54:55.125Z,9.711638
2023-01-11T21:55:55.086Z,9.711684
2023-01-11T21:56:55.101Z,9.711645
2023-01-11T21:57:55.076Z,9.711653
2023-01-11T21:58:55.672Z,9.711646
2023-01-11T21:59:55.060Z,9.711621
2023-01-11T22:00:55.080Z,9.711618
2023-01-11T22:01:55.052Z,9.711648
2023-01-11T22:02:55.034Z,9.711667
2023-01-11T22:03:55.040Z,9.711658
2023-01-11T22:04:55.041Z,9.711612
2023-01-11T22:05:55.013Z,9.711673
2023-01-11T22:06:55.887Z,9.711741
2023-01-11T22:07:54.991Z,9.711755
2023-01-11T22:08:54.982Z,9.711763
2023-01-11T22:10:04.545Z,9.711683
2023-01-11T22:10:56.975Z,9.711693
2023-01-11T22:11:54.971Z,9.711805
2023-01-11T22:12:54.954Z,9.711852
2023-01-11T22:13:55.019Z,9.711894
2023-01-11T22:14:54.932Z,9.711925
2023-01-11T22:15:54.947Z,9.711950
2023-01-11T22:16:54.915Z,9.711908
2023-01-11T22:17:56.596Z,9.711777
2023-01-11T22:18:54.919Z,9.711923
2023-01-11T22:19:56.681Z,9.711987
2023-01-11T22:20:54.920Z,9.711989
2023-01-11T22:21:59.612Z,9.711897
2023-01-11T22:22:54.871Z,9.712103
2023-01-11T22:23:56.685Z,9.712099
2023-01-11T22:24:58.218Z,9.712075
2023-01-11T22:25:54.845Z,9.712070
2023-01-11T22:26:56.742Z,9.712047
2023-01-11T22:27:54.889Z,9.712139
2023-01-11T22:28:54.826Z,9.712410
2023-01-11T22:30:31.715Z,9.712317
2023-01-11T22:30:54.817Z,9.712347
2023-01-11T22:31:55.756Z,9.712297
2023-01-11T22:32:54.801Z,9.712282
2023-01-11T22:33:54.780Z,9.712285
2023-01-11T22:34:54.777Z,9.712193
2023-01-11T22:35:54.775Z,9.712034
2023-01-11T22:36:54.787Z,9.711730
2023-01-11T22:37:54.756Z,9.711657
2023-01-11T22:38:54.742Z,9.711620
2023-01-11T22:39:54.735Z,9.711637
2023-01-11T22:40:54.726Z,9.711600
2023-01-11T22:41:54.716Z,9.711642
2023-01-11T22:42:54.718Z,9.711645
2023-01-11T22:43:54.701Z,9.711637
2023-01-11T22:44:54.695Z,9.711617
2023-01-11T22:45:54.794Z,9.711631
2023-01-11T22:46:54.669Z,9.711620
2023-01-11T22:47:54.664Z,9.711698
2023-01-11T22:48:54.652Z,9.711667
2023-01-11T22:49:54.658Z,9.711626
2023-01-11T22:50:55.157Z,9.711688
2023-01-11T22:51:54.629Z,9.711688
2023-01-11T22:52:54.621Z,9.711754
2023-01-11T22:53:54.734Z,9.711670
2023-01-11T22:54:56.245Z,9.711650
2023-01-11T22:55:54.599Z,9.711698
2023-01-11T22:56:54.609Z,9.711680
2023-01-11T22:57:56.213Z,9.711677
2023-01-11T22:58:58.137Z,9.711665
2023-01-11T22:59:54.577Z,9.711675
2023-01-11T23:00:54.562Z,9.711612
2023-01-11T23:01:54.552Z,9.711662
2023-01-11T23:02:54.591Z,9.711659
2023-01-11T23:03:54.601Z,9.711651
2023-01-11T23:04:54.529Z,9.711624
2023-01-11T23:05:54.523Z,9.711669
2023-01-11T23:06:54.512Z,9.711692
2023-01-11T23:07:54.504Z,9.711693
2023-01-11T23:08:54.495Z,9.711682
2023-01-11T23:09:54.492Z,9.711646
2023-01-11T23:10:54.485Z,9.711782
2023-01-11T23:11:54.471Z,9.711626
2023-01-11T23:12:54.463Z,9.711723
2023-01-11T23:13:54.471Z,9.711744
2023-01-11T23:14:54.466Z,9.711576
2023-01-11T23:15:54.464Z,9.711818
2023-01-11T23:16:54.496Z,9.711752
2023-01-11T23:17:54.428Z,9.711746
2023-01-11T23:18:55.221Z,9.711860
2023-01-11T23:19:54.434Z,9.711640
2023-01-11T23:20:54.413Z,9.711664
2023-01-11T23:21:56.136Z,9.711736
2023-01-11T23:22:54.388Z,9.711723
2023-01-11T23:23:55.219Z,9.711731
2023-01-11T23:24:59.140Z,9.711723
2023-01-11T23:25:54.386Z,9.711697
2023-01-11T23:26:54.377Z,9.711734
2023-01-11T23:27:54.358Z,9.711719
2023-01-11T23:28:55.165Z,9.711707
2023-01-11T23:29:54.354Z,9.711686
2023-01-11T23:30:56.238Z,9.711690
2023-01-11T23:31:54.395Z,9.711702
2023-01-11T23:32:54.385Z,9.711584
2023-01-11T23:33:54.331Z,9.711692
2023-01-11T23:34:54.291Z,9.711761
2023-01-11T23:35:54.294Z,9.711766
2023-01-11T23:36:59.243Z,9.711683
2023-01-11T23:37:54.263Z,9.711688
2023-01-11T23:38:54.273Z,9.711729
2023-01-11T23:39:54.252Z,9.711679
2023-01-11T23:40:54.243Z,9.711691
2023-01-11T23:41:54.243Z,9.711627
2023-01-11T23:42:54.233Z,9.711707
2023-01-11T23:43:55.244Z,9.711732
2023-01-11T23:44:54.210Z,9.711659